Time;durP1;ratioP1;P1;durP2;ratioP2;P2;SDS_P1;SDS_P2;PMS_P1;PMS_P2;Temp;Humidity;BMP_temperature;BMP_pressure;BME280_temperature;BME280_humidity;BME280_pressure;Samples;Min_cycle;Max_cycle;Signal;HPM_P1;HPM_P2
2022/04/06 00:00:37;;;;;;;13.10;8.85;;;;;;;3.01;100.00;98972.06;1694402;84;21117;-69
2022/04/06 00:03:03;;;;;;;12.90;8.90;;;;;;;3.03;100.00;98972.89;1694315;84;21216;-68
2022/04/06 00:05:31;;;;;;;12.33;8.70;;;;;;;3.03;100.00;98979.39;1694253;84;21041;-69
2022/04/06 00:07:58;;;;;;;12.68;8.75;;;;;;;3.03;100.00;98984.59;1694337;84;21109;-70
2022/04/06 00:10:25;;;;;;;11.05;8.20;;;;;;;3.03;100.00;98983.29;1694548;84;21165;-70
2022/04/06 00:12:53;;;;;;;11.08;8.20;;;;;;;3.05;100.00;98987.16;1694493;84;21046;-69
2022/04/06 00:15:21;;;;;;;14.65;9.63;;;;;;;3.06;100.00;98992.34;1694603;84;21451;-69
2022/04/06 00:17:48;;;;;;;12.85;8.28;;;;;;;3.09;100.00;98989.66;1694362;84;21101;-68
2022/04/06 00:20:16;;;;;;;12.80;9.08;;;;;;;3.12;100.00;98990.86;1694507;83;21038;-70
2022/04/06 00:22:46;;;;;;;10.30;8.23;;;;;;;3.18;100.00;98995.53;1694672;84;21061;-70
2022/04/06 00:25:12;;;;;;;11.50;8.75;;;;;;;3.22;100.00;98990.64;1694403;84;21033;-70
2022/04/06 00:27:40;;;;;;;12.45;8.63;;;;;;;3.25;100.00;98992.73;1694466;84;21038;-70
2022/04/06 00:30:09;;;;;;;11.75;8.45;;;;;;;3.31;100.00;98991.70;1694694;84;21081;-69
2022/04/06 00:32:36;;;;;;;13.53;9.30;;;;;;;3.35;100.00;98995.48;1694764;84;21195;-69
2022/04/06 00:37:51;;;;;;;12.53;9.08;;;;;;;3.41;100.00;99003.60;1694498;84;21139;-69
2022/04/06 00:40:19;;;;;;;10.45;7.80;;;;;;;3.45;100.00;99010.44;1694328;84;21226;-69
2022/04/06 00:42:47;;;;;;;12.60;9.25;;;;;;;3.47;100.00;99017.73;1694274;84;21161;-70
2022/04/06 00:45:14;;;;;;;13.13;8.88;;;;;;;3.51;100.00;99019.38;1664589;84;22215;-71
2022/04/06 00:47:43;;;;;;;12.68;8.65;;;;;;;3.57;100.00;99018.37;1694372;84;21085;-69
2022/04/06 00:50:09;;;;;;;11.60;9.13;;;;;;;3.61;100.00;99023.03;1686266;84;21022;-68
2022/04/06 00:52:37;;;;;;;14.83;9.45;;;;;;;3.62;100.00;99014.34;1666443;85;21242;-69
2022/04/06 00:55:05;;;;;;;11.45;8.50;;;;;;;3.63;100.00;99014.28;1666236;86;21093;-69
2022/04/06 00:57:32;;;;;;;11.12;8.05;;;;;;;3.55;100.00;99022.31;1666433;85;21728;-69
2022/04/06 00:59:59;;;;;;;12.73;8.68;;;;;;;3.54;100.00;99023.22;1666613;86;21601;-69
2022/04/06 01:02:25;;;;;;;12.35;9.20;;;;;;;3.49;100.00;99019.86;1666279;86;21090;-69
2022/04/06 01:04:52;;;;;;;13.93;8.98;;;;;;;3.43;100.00;99027.84;1666143;86;21180;-68
2022/04/06 01:07:20;;;;;;;12.45;8.90;;;;;;;3.39;100.00;99026.20;1666221;85;21118;-69
2022/04/06 01:09:47;;;;;;;13.60;7.75;;;;;;;3.32;100.00;99025.95;1665961;86;21072;-71
2022/04/06 01:12:13;;;;;;;12.07;8.43;;;;;;;3.28;100.00;99026.47;1665878;86;21148;-69
2022/04/06 01:14:40;;;;;;;15.05;9.45;;;;;;;3.22;100.00;99017.53;1666211;86;21172;-69
2022/04/06 01:17:08;;;;;;;12.80;8.70;;;;;;;3.15;100.00;99022.45;1659738;85;21170;-69
2022/04/06 01:19:38;;;;;;;17.30;9.53;;;;;;;3.11;100.00;99023.45;1666163;84;21573;-67
2022/04/06 01:22:11;;;;;;;17.23;9.93;;;;;;;3.04;100.00;99022.73;1666410;86;21561;-68
2022/04/06 01:24:39;;;;;;;13.00;9.20;;;;;;;2.97;100.00;99026.37;1665847;86;21100;-68
2022/04/06 01:27:07;;;;;;;15.08;9.40;;;;;;;2.89;100.00;99023.09;1666272;85;21100;-68
2022/04/06 01:29:34;;;;;;;15.03;10.72;;;;;;;2.81;100.00;99031.08;1666091;85;21257;-70
2022/04/06 01:32:12;;;;;;;12.68;9.43;;;;;;;2.80;100.00;99032.41;1666157;85;21151;-69
2022/04/06 01:34:41;;;;;;;12.40;9.30;;;;;;;2.75;100.00;99031.21;1666042;86;21073;-69
2022/04/06 01:37:09;;;;;;;14.10;9.55;;;;;;;2.73;100.00;99033.83;1666558;84;21112;-70
2022/04/06 01:39:37;;;;;;;15.38;10.25;;;;;;;2.68;100.00;99033.09;1666564;85;21607;-67
2022/04/06 01:42:06;;;;;;;16.35;10.03;;;;;;;2.59;100.00;99032.00;1666252;86;21114;-68
2022/04/06 01:44:33;;;;;;;15.88;10.60;;;;;;;2.55;100.00;99031.64;1666663;86;21081;-68
2022/04/06 01:47:01;;;;;;;13.45;10.10;;;;;;;2.48;100.00;99030.08;1666397;86;21050;-69
2022/04/06 01:52:13;;;;;;;13.60;9.00;;;;;;;2.40;100.00;99038.50;1694537;84;21145;-70
2022/04/06 01:54:45;;;;;;;17.32;9.83;;;;;;;2.40;100.00;99038.50;1694292;84;21228;-69
2022/04/06 01:57:12;;;;;;;12.90;9.10;;;;;;;2.31;100.00;99037.79;1694070;84;21682;-69
2022/04/06 01:59:41;;;;;;;13.08;9.58;;;;;;;2.31;100.00;99049.48;1694398;84;21080;-70
2022/04/06 02:02:10;;;;;;;12.43;9.55;;;;;;;2.23;100.00;99044.91;1694385;84;21075;-67
2022/04/06 02:04:38;;;;;;;13.53;9.65;;;;;;;2.17;100.00;99045.47;1694336;84;21170;-69
2022/04/06 02:07:06;;;;;;;15.05;9.25;;;;;;;2.14;100.00;99038.59;1694227;84;21561;-68
2022/04/06 02:09:36;;;;;;;14.93;10.15;;;;;;;2.06;100.00;99046.97;1694169;84;21076;-69
2022/04/06 02:12:07;;;;;;;15.43;9.48;;;;;;;2.06;100.00;99046.97;1694301;84;21652;-70
2022/04/06 02:14:34;;;;;;;12.98;9.48;;;;;;;2.06;100.00;99050.87;1694372;83;21085;-69
2022/04/06 02:17:04;;;;;;;15.50;10.20;;;;;;;2.01;100.00;99046.22;1694261;84;21042;-69
2022/04/06 02:19:31;;;;;;;15.28;10.98;;;;;;;1.99;100.00;99048.83;1694439;84;21116;-70
2022/04/06 02:21:59;;;;;;;13.05;10.18;;;;;;;1.97;100.00;99053.20;1694352;83;21062;-69
2022/04/06 02:24:26;;;;;;;15.25;10.30;;;;;;;1.96;100.00;99054.55;1694246;84;21096;-68
2022/04/06 02:26:52;;;;;;;13.48;9.45;;;;;;;1.96;100.00;99054.55;1694338;84;21069;-69
2022/04/06 02:29:19;;;;;;;13.62;9.63;;;;;;;1.96;100.00;99051.50;1694183;84;21156;-70
2022/04/06 02:31:46;;;;;;;16.25;11.22;;;;;;;2.01;100.00;99065.69;1694241;84;21130;-69
2022/04/06 02:35:08;;;;;;;18.17;10.77;;;;;;;2.00;100.00;99066.56;1814594;79;22662;-69
2022/04/06 02:37:34;;;;;;;13.30;9.53;;;;;;;2.02;100.00;99062.20;1787691;80;21115;-69
2022/04/06 02:40:01;;;;;;;18.00;11.48;;;;;;;2.06;100.00;99057.36;1787617;80;21133;-70
2022/04/06 02:42:28;;;;;;;18.02;11.03;;;;;;;2.03;100.00;99060.88;1760433;79;21063;-69
2022/04/06 02:44:55;;;;;;;17.48;10.98;;;;;;;2.09;100.00;99054.27;1756708;81;21033;-70
2022/04/06 02:47:22;;;;;;;16.82;11.00;;;;;;;2.12;100.00;99054.66;1756488;81;21057;-69
2022/04/06 02:49:50;;;;;;;16.45;10.72;;;;;;;2.13;100.00;99058.95;1756617;81;21590;-69
2022/04/06 02:52:18;;;;;;;15.63;11.33;;;;;;;2.15;100.00;99061.08;1756574;81;21108;-68
2022/04/06 02:54:46;;;;;;;16.37;11.50;;;;;;;2.12;100.00;99057.67;1756636;81;21094;-70
2022/04/06 02:57:14;;;;;;;16.57;10.72;;;;;;;2.12;100.00;99059.84;1756739;81;22057;-69
2022/04/06 02:59:41;;;;;;;16.07;11.22;;;;;;;2.13;100.00;99059.40;1756560;81;21023;-69
2022/04/06 03:02:08;;;;;;;14.75;10.63;;;;;;;2.08;100.00;99062.94;1756606;81;21059;-69
2022/04/06 03:04:36;;;;;;;15.23;10.32;;;;;;;2.08;100.00;99062.94;1756600;81;21199;-69
2022/04/06 03:07:04;;;;;;;13.60;9.80;;;;;;;2.09;100.00;99074.17;1756584;81;22110;-70
2022/04/06 03:09:30;;;;;;;17.07;10.30;;;;;;;2.02;100.00;99076.48;1756518;81;21074;-70
2022/04/06 03:11:59;;;;;;;15.20;9.80;;;;;;;1.94;100.00;99080.98;1756735;81;21574;-68
2022/04/06 03:14:27;;;;;;;15.87;10.20;;;;;;;1.86;100.00;99079.38;1756818;81;20998;-70
2022/04/06 03:16:54;;;;;;;14.47;10.05;;;;;;;1.83;100.00;99085.91;1756578;81;21949;-68
2022/04/06 03:19:21;;;;;;;15.43;10.68;;;;;;;1.80;100.00;99087.27;1756531;81;21063;-68
2022/04/06 03:21:48;;;;;;;14.40;10.68;;;;;;;1.70;100.00;99081.81;1756399;81;21050;-69
2022/04/06 03:24:16;;;;;;;17.12;11.12;;;;;;;1.70;100.00;99081.81;1756343;81;21054;-69
2022/04/06 03:26:43;;;;;;;16.75;11.20;;;;;;;1.69;100.00;99093.09;1756521;81;21058;-68
2022/04/06 03:29:10;;;;;;;19.92;11.60;;;;;;;1.63;100.00;99098.38;1756437;81;21261;-69
2022/04/06 03:31:38;;;;;;;18.00;11.12;;;;;;;1.63;100.00;99098.38;1756385;81;21050;-68
2022/04/06 03:34:05;;;;;;;17.73;11.65;;;;;;;1.58;100.00;99091.12;1750432;81;21505;-69
2022/04/06 03:36:32;;;;;;;15.28;11.73;;;;;;;1.58;100.00;99091.12;1743761;82;21443;-69
2022/04/06 03:38:58;;;;;;;16.52;11.20;;;;;;;1.59;100.00;99100.20;1743381;82;21031;-68
2022/04/06 03:41:25;;;;;;;17.05;10.93;;;;;;;1.63;100.00;99102.27;1743507;81;21150;-68
2022/04/06 03:43:52;;;;;;;16.07;10.38;;;;;;;1.65;100.00;99107.84;1743005;82;21106;-68
2022/04/06 03:46:19;;;;;;;15.70;10.68;;;;;;;1.67;100.00;99115.63;1742953;82;21062;-69
2022/04/06 03:48:45;;;;;;;18.92;12.00;;;;;;;1.66;100.00;99117.81;1742974;82;21024;-67
2022/04/06 03:51:12;;;;;;;16.77;10.53;;;;;;;1.67;100.00;99108.69;1743258;82;21622;-70
2022/04/06 03:53:39;;;;;;;16.40;11.20;;;;;;;1.70;100.00;99107.77;1742966;82;21406;-69
2022/04/06 03:56:06;;;;;;;15.98;11.05;;;;;;;1.71;100.00;99112.09;1742807;82;21025;-68
2022/04/06 03:58:32;;;;;;;17.75;10.88;;;;;;;1.75;100.00;99113.77;1742708;82;21043;-70
2022/04/06 04:00:58;;;;;;;20.00;10.78;;;;;;;1.77;100.00;99119.79;1742905;82;21098;-70
2022/04/06 04:03:25;;;;;;;15.35;11.30;;;;;;;1.83;100.00;99121.41;1743045;82;21044;-69
2022/04/06 04:05:53;;;;;;;18.52;12.28;;;;;;;1.87;100.00;99121.33;1742848;82;21060;-69
2022/04/06 04:08:21;;;;;;;17.30;11.65;;;;;;;2.10;100.00;99133.04;1742560;82;21031;-70
2022/04/06 04:10:47;;;;;;;19.50;11.38;;;;;;;2.38;100.00;99128.61;1742849;82;21062;-71
2022/04/06 04:13:14;;;;;;;17.30;11.68;;;;;;;2.41;100.00;99119.45;1742783;82;21067;-70
2022/04/06 04:15:41;;;;;;;20.40;12.65;;;;;;;2.56;100.00;99120.89;1742831;82;21066;-69
2022/04/06 04:18:10;;;;;;;22.40;13.25;;;;;;;2.56;100.00;99120.89;1742992;82;21079;-69
2022/04/06 04:20:37;;;;;;;20.60;12.60;;;;;;;3.01;100.00;99125.98;1743010;82;21503;-70
2022/04/06 04:23:04;;;;;;;16.87;11.73;;;;;;;3.52;100.00;99125.64;1742984;82;21062;-69
2022/04/06 04:25:31;;;;;;;19.17;12.25;;;;;;;3.89;100.00;99130.81;1743101;82;21086;-69
2022/04/06 04:27:57;;;;;;;18.98;11.57;;;;;;;4.24;100.00;99122.95;1743038;82;21004;-70
2022/04/06 04:30:24;;;;;;;20.32;12.10;;;;;;;4.65;100.00;99113.09;1742861;82;21151;-69
2022/04/06 04:32:51;;;;;;;14.80;10.68;;;;;;;5.09;100.00;99118.30;1742903;82;21084;-70
2022/04/06 04:35:17;;;;;;;13.78;9.90;;;;;;;5.48;100.00;99126.23;1749042;82;21082;-72
2022/04/06 04:37:44;;;;;;;12.63;8.83;;;;;;;5.87;100.00;99145.81;1750513;82;21114;-71
2022/04/06 04:40:11;;;;;;;12.20;9.63;;;;;;;6.33;100.00;99165.64;1750732;80;21074;-70
2022/04/06 04:42:38;;;;;;;14.53;9.28;;;;;;;6.87;100.00;99157.99;1750682;82;21144;-70
2022/04/06 04:45:09;;;;;;;16.55;9.58;;;;;;;7.40;99.16;99156.84;1750334;82;21038;-69
2022/04/06 04:47:39;;;;;;;15.38;10.25;;;;;;;7.76;92.38;99157.13;1750843;81;21555;-71
2022/04/06 04:50:07;;;;;;;12.85;9.45;;;;;;;8.06;92.03;99146.28;1730259;82;21020;-68
2022/04/06 04:52:34;;;;;;;13.45;9.03;;;;;;;8.36;87.86;99141.48;1750908;82;21106;-69
2022/04/06 04:55:01;;;;;;;15.75;9.40;;;;;;;8.61;86.14;99138.67;1750736;82;21234;-69
2022/04/06 04:57:27;;;;;;;15.08;10.50;;;;;;;8.53;83.93;99143.39;1750787;82;21071;-69
2022/04/06 04:59:54;;;;;;;15.13;9.53;;;;;;;8.08;85.24;99149.70;1750740;82;21078;-70
2022/04/06 05:02:21;;;;;;;15.53;10.58;;;;;;;7.56;86.86;99154.00;1722078;81;21061;-69
2022/04/06 05:04:48;;;;;;;21.10;10.45;;;;;;;7.13;88.77;99162.69;1720803;83;21131;-69
2022/04/06 05:07:14;;;;;;;13.15;10.03;;;;;;;6.75;90.89;99168.92;1720694;83;21161;-71
2022/04/06 05:09:42;;;;;;;16.23;10.80;;;;;;;6.42;92.72;99179.70;1720829;83;21100;-69
2022/04/06 05:12:10;;;;;;;14.87;10.38;;;;;;;6.10;94.71;99180.81;1720883;83;21003;-70
2022/04/06 05:14:37;;;;;;;13.98;10.03;;;;;;;5.78;96.51;99174.02;1720818;83;22243;-70
2022/04/06 05:17:05;;;;;;;14.18;10.55;;;;;;;5.55;98.11;99169.07;1720738;83;21084;-71
2022/04/06 05:19:32;;;;;;;13.88;10.30;;;;;;;5.36;100.00;99164.01;1720831;83;21135;-69
2022/04/06 05:22:02;;;;;;;15.80;10.30;;;;;;;5.16;100.00;99166.80;1720718;83;21017;-69
2022/04/06 05:24:29;;;;;;;16.60;10.65;;;;;;;5.05;100.00;99166.26;1721168;83;21985;-70
2022/04/06 05:26:59;;;;;;;19.02;10.75;;;;;;;5.09;100.00;99163.13;1720951;83;21057;-70
2022/04/06 05:29:25;;;;;;;13.78;9.65;;;;;;;5.12;100.00;99157.34;1720838;83;21017;-70
2022/04/06 05:31:52;;;;;;;31.77;14.87;;;;;;;5.20;100.00;99160.59;1720679;83;21553;-69
2022/04/06 05:34:19;;;;;;;22.37;11.25;;;;;;;5.45;100.00;99166.33;1718491;83;22482;-69
2022/04/06 05:36:45;;;;;;;18.82;9.85;;;;;;;5.59;100.00;99173.30;1713090;83;21045;-69
2022/04/06 05:39:12;;;;;;;13.10;9.95;;;;;;;5.56;100.00;99176.45;1723964;82;21053;-70
2022/04/06 05:41:40;;;;;;;16.32;9.78;;;;;;;5.59;100.00;99172.00;1742909;80;21044;-71
2022/04/06 05:44:07;;;;;;;19.12;9.65;;;;;;;5.61;100.00;99162.36;1742647;82;21339;-69
2022/04/06 05:46:35;;;;;;;13.50;9.83;;;;;;;5.53;100.00;99163.04;1742776;82;21073;-71
2022/04/06 05:49:01;;;;;;;15.30;9.70;;;;;;;5.55;100.00;99165.16;1742985;82;21069;-70
2022/04/06 05:51:28;;;;;;;13.28;9.53;;;;;;;5.64;100.00;99168.77;1717746;82;21052;-70
2022/04/06 05:53:55;;;;;;;17.27;9.35;;;;;;;5.72;100.00;99178.13;1713471;83;21012;-69
2022/04/06 05:56:22;;;;;;;14.70;9.60;;;;;;;5.63;100.00;99186.64;1713313;83;21788;-70
2022/04/06 05:58:49;;;;;;;13.93;9.23;;;;;;;5.50;100.00;99185.34;1713056;83;21060;-70
2022/04/06 06:01:19;;;;;;;14.80;9.55;;;;;;;5.33;100.00;99174.55;1728264;82;21108;-70
2022/04/06 06:03:46;;;;;;;15.15;9.23;;;;;;;5.24;100.00;99173.08;1742843;82;21065;-69
2022/04/06 06:06:13;;;;;;;15.63;9.65;;;;;;;5.17;100.00;99177.63;1742523;82;21061;-68
2022/04/06 06:08:40;;;;;;;14.98;9.93;;;;;;;5.12;100.00;99170.39;1742675;82;21094;-72
2022/04/06 06:11:06;;;;;;;16.45;9.93;;;;;;;5.10;100.00;99186.55;1742396;82;21554;-70
2022/04/06 06:13:33;;;;;;;13.95;9.85;;;;;;;5.09;100.00;99184.84;1742646;82;21073;-70
2022/04/06 06:16:00;;;;;;;15.25;10.00;;;;;;;5.06;100.00;99173.17;1742706;82;21740;-71
2022/04/06 06:18:28;;;;;;;15.58;9.75;;;;;;;5.08;100.00;99171.84;1742624;82;21101;-70
2022/04/06 06:21:00;;;;;;;16.17;10.40;;;;;;;5.04;100.00;99169.78;1743254;82;22157;-69
2022/04/06 06:23:27;;;;;;;15.48;10.70;;;;;;;5.00;100.00;99161.64;1742806;82;21222;-69
2022/04/06 06:25:54;;;;;;;18.00;11.28;;;;;;;4.96;100.00;99158.25;1742964;82;21105;-70
2022/04/06 06:28:21;;;;;;;15.72;11.57;;;;;;;4.94;100.00;99152.67;1742648;82;21573;-71
2022/04/06 06:30:47;;;;;;;18.90;11.68;;;;;;;4.89;100.00;99166.31;1742754;82;21112;-70
2022/04/06 06:33:14;;;;;;;16.80;11.08;;;;;;;4.82;100.00;99174.30;1742855;82;21211;-69
2022/04/06 06:35:41;;;;;;;19.10;11.95;;;;;;;4.78;100.00;99176.59;1742299;82;21018;-69
2022/04/06 06:38:08;;;;;;;14.90;10.72;;;;;;;4.76;100.00;99171.89;1742784;82;21041;-69
2022/04/06 06:40:35;;;;;;;22.60;12.93;;;;;;;4.75;100.00;99170.17;1742686;80;21525;-70
2022/04/06 06:43:02;;;;;;;19.27;11.80;;;;;;;4.76;100.00;99156.25;1742773;82;21108;-70
2022/04/06 06:45:28;;;;;;;22.25;13.13;;;;;;;4.81;100.00;99167.39;1742603;82;21256;-70
2022/04/06 06:47:55;;;;;;;16.77;10.60;;;;;;;4.91;100.00;99176.26;1742619;82;20986;-70
2022/04/06 06:50:22;;;;;;;17.98;10.60;;;;;;;4.98;100.00;99179.09;1731293;82;21079;-70
2022/04/06 06:52:51;;;;;;;16.77;10.43;;;;;;;5.03;100.00;99171.97;1713112;83;21051;-70
2022/04/06 06:55:19;;;;;;;18.32;11.57;;;;;;;5.03;100.00;99166.75;1713040;83;21531;-70
2022/04/06 06:57:49;;;;;;;20.97;12.53;;;;;;;5.03;100.00;99179.80;1712833;83;21305;-70
2022/04/06 07:00:18;;;;;;;19.75;12.33;;;;;;;5.09;100.00;99178.78;1713125;83;21075;-71
2022/04/06 07:02:45;;;;;;;18.98;12.00;;;;;;;5.16;100.00;99172.47;1713063;82;21115;-72
2022/04/06 07:05:12;;;;;;;17.75;11.20;;;;;;;5.23;100.00;99168.31;1713065;83;21107;-70
2022/04/06 07:07:53;;;;;;;16.20;11.68;;;;;;;5.26;100.00;99173.89;1713026;82;21586;-71
2022/04/06 07:10:23;;;;;;;19.42;12.65;;;;;;;5.22;100.00;99167.92;1713035;82;21114;-71
2022/04/06 07:12:51;;;;;;;19.77;12.15;;;;;;;5.24;100.00;99158.30;1713249;83;21063;-70
2022/04/06 07:15:19;;;;;;;17.60;11.73;;;;;;;5.29;100.00;99156.84;1713123;83;21070;-70
2022/04/06 07:17:55;;;;;;;17.27;11.43;;;;;;;5.42;100.00;99155.53;1713230;83;21079;-70
2022/04/06 07:20:23;;;;;;;19.92;12.65;;;;;;;5.58;100.00;99165.05;1713120;82;21063;-71
2022/04/06 07:22:53;;;;;;;15.85;11.48;;;;;;;5.74;100.00;99163.25;1713660;83;21130;-70
2022/04/06 07:25:20;;;;;;;16.50;11.65;;;;;;;5.83;100.00;99166.87;1713208;83;21538;-71
2022/04/06 07:27:48;;;;;;;14.53;9.83;;;;;;;5.99;100.00;99165.48;1713165;82;21024;-70
2022/04/06 07:30:15;;;;;;;17.20;10.53;;;;;;;6.13;100.00;99169.39;1713308;82;21496;-72
2022/04/06 07:32:41;;;;;;;15.20;11.18;;;;;;;6.28;100.00;99180.18;1713424;82;21634;-72
2022/04/06 07:35:10;;;;;;;15.95;9.90;;;;;;;6.39;99.29;99176.33;1715357;82;21338;-69
2022/04/06 07:37:40;;;;;;;15.55;9.38;;;;;;;6.44;98.80;99170.47;1721104;83;21184;-69
2022/04/06 07:40:08;;;;;;;17.25;10.13;;;;;;;6.47;98.99;99169.92;1720210;82;21213;-69
2022/04/06 07:42:36;;;;;;;17.32;10.32;;;;;;;6.56;98.65;99167.90;1721069;83;21051;-71
2022/04/06 07:45:16;;;;;;;16.73;10.08;;;;;;;6.63;98.01;99165.00;1720824;83;21087;-70
2022/04/06 07:47:45;;;;;;;17.83;10.40;;;;;;;6.74;97.76;99173.77;1721105;83;21106;-69
2022/04/06 07:50:15;;;;;;;14.83;9.05;;;;;;;6.84;96.56;99163.34;1729691;82;21320;-70
2022/04/06 07:52:43;;;;;;;15.37;10.63;;;;;;;6.95;95.68;99161.66;1748147;82;21049;-70
2022/04/06 07:55:11;;;;;;;12.25;8.30;;;;;;;6.98;95.98;99158.06;1747812;82;22041;-70
2022/04/06 07:57:38;;;;;;;14.28;9.35;;;;;;;7.07;95.38;99147.23;1748010;82;21533;-69
2022/04/06 08:00:09;;;;;;;15.58;9.85;;;;;;;7.44;95.24;99146.64;1747929;82;21188;-69
2022/04/06 08:02:36;;;;;;;12.47;8.83;;;;;;;8.06;92.48;99138.42;1747950;82;21029;-71
2022/04/06 08:05:07;;;;;;;13.78;8.18;;;;;;;8.82;87.65;99144.72;1748049;82;21065;-69
2022/04/06 08:07:33;;;;;;;12.73;7.62;;;;;;;9.61;82.14;99140.56;1748289;82;29063;-70
2022/04/06 08:10:00;;;;;;;12.47;6.95;;;;;;;10.11;79.50;99150.81;1747862;82;21049;-70
2022/04/06 08:12:26;;;;;;;9.10;6.22;;;;;;;10.23;77.44;99144.91;1747978;82;21766;-70
2022/04/06 08:14:54;;;;;;;13.55;7.62;;;;;;;10.45;75.16;99141.23;1748083;82;21065;-71
2022/04/06 08:17:23;;;;;;;9.60;7.03;;;;;;;10.92;74.49;99145.73;1748059;82;21049;-70
2022/04/06 08:19:50;;;;;;;11.05;7.10;;;;;;;11.32;71.63;99131.70;1748033;82;21045;-70
2022/04/06 08:22:24;;;;;;;9.70;6.83;;;;;;;11.52;69.67;99133.20;1748414;82;21592;-69
2022/04/06 08:24:50;;;;;;;9.73;6.90;;;;;;;11.39;69.61;99138.33;1748227;82;21140;-70
2022/04/06 08:27:23;;;;;;;13.53;7.15;;;;;;;11.18;70.83;99132.91;1748090;82;21116;-70
2022/04/06 08:29:50;;;;;;;8.65;6.60;;;;;;;10.98;70.28;99140.14;1748288;82;21060;-70
2022/04/06 08:32:16;;;;;;;12.25;6.37;;;;;;;10.67;71.85;99142.24;1748223;82;21052;-72
2022/04/06 08:34:43;;;;;;;8.88;6.30;;;;;;;10.25;72.46;99135.16;1747995;82;21092;-70
2022/04/06 08:37:10;;;;;;;11.00;6.53;;;;;;;10.14;73.00;99145.38;1750718;82;21230;-71
2022/04/06 08:39:37;;;;;;;8.88;6.03;;;;;;;10.15;73.97;99137.90;1750661;82;21090;-71
2022/04/06 08:42:08;;;;;;;10.28;6.95;;;;;;;10.37;72.96;99152.61;1750798;80;21087;-70
2022/04/06 08:44:37;;;;;;;9.33;6.67;;;;;;;10.64;72.46;99136.68;1750908;82;21125;-69
2022/04/06 08:47:06;;;;;;;10.60;6.62;;;;;;;10.95;71.58;99131.55;1750770;82;21019;-69
2022/04/06 08:49:34;;;;;;;10.68;5.97;;;;;;;11.18;69.87;99151.36;1750078;82;21207;-70
2022/04/06 08:52:05;;;;;;;19.55;6.22;;;;;;;11.27;69.51;99125.81;1721168;83;21046;-70
2022/04/06 08:54:31;;;;;;;11.80;7.03;;;;;;;11.35;68.42;99138.11;1721168;83;21102;-69
2022/04/06 08:56:58;;;;;;;10.58;6.92;;;;;;;11.39;67.03;99137.02;1720780;83;21082;-71
2022/04/06 08:59:26;;;;;;;10.25;6.90;;;;;;;11.53;66.73;99131.80;1720914;83;21078;-71
2022/04/06 09:01:53;;;;;;;8.75;4.78;;;;;;;11.93;65.70;99133.48;1720789;83;21067;-70
2022/04/06 09:04:20;;;;;;;8.60;6.67;;;;;;;12.21;63.58;99127.05;1720669;83;21908;-69
2022/04/06 09:06:50;;;;;;;9.30;6.03;;;;;;;12.36;62.69;99121.70;1721112;83;21516;-70
2022/04/06 09:09:22;;;;;;;8.20;6.15;;;;;;;12.66;62.32;99148.98;1720988;83;21058;-70
2022/04/06 09:11:48;;;;;;;9.05;6.20;;;;;;;12.72;61.66;99120.41;1721110;83;21063;-71
2022/04/06 09:14:17;;;;;;;9.05;5.37;;;;;;;12.96;61.48;99112.72;1720738;83;22356;-70
2022/04/06 09:16:43;;;;;;;7.03;5.17;;;;;;;12.80;60.09;99123.41;1669293;83;21047;-73
2022/04/06 09:19:13;;;;;;;8.25;5.30;;;;;;;12.67;61.23;99118.49;1721082;83;21081;-70
2022/04/06 09:21:48;;;;;;;5.83;4.25;;;;;;;12.62;60.22;99123.70;1721464;83;21167;-71
2022/04/06 09:24:19;;;;;;;6.92;5.10;;;;;;;12.52;60.21;99126.06;1720749;83;21118;-72
2022/04/06 09:27:01;;;;;;;8.53;4.70;;;;;;;12.37;61.13;99118.10;1721014;83;21142;-70
2022/04/06 09:29:27;;;;;;;8.43;5.13;;;;;;;12.29;61.97;99123.02;1720993;83;21039;-70
2022/04/06 09:31:54;;;;;;;5.78;4.30;;;;;;;12.45;60.39;99119.45;1720948;82;21146;-71
2022/04/06 09:34:23;;;;;;;4.83;4.03;;;;;;;12.37;59.52;99120.74;1720762;83;21065;-70
2022/04/06 09:36:56;;;;;;;6.40;4.12;;;;;;;12.25;59.32;99124.13;1715460;83;21084;-71
2022/04/06 09:39:19;;;;;;;6.22;3.67;;;;;;;12.14;59.84;99130.52;1712140;83;21153;-69
2022/04/06 09:41:59;;;;;;;6.90;3.75;;;;;;;12.13;60.37;99123.55;1712980;81;21029;-70
2022/04/06 09:50:22;;;;;;;5.05;3.75;;;;;;;11.81;59.89;99123.63;1713249;83;21012;-70
2022/04/06 09:52:51;;;;;;;5.62;3.90;;;;;;;11.62;60.83;99119.01;1713405;83;21917;-71
2022/04/06 09:55:19;;;;;;;4.50;3.60;;;;;;;11.53;61.74;99121.25;1702773;83;21055;-71
2022/04/06 09:57:55;;;;;;;7.75;4.40;;;;;;;11.51;61.33;99135.46;1713346;82;21548;-70
2022/04/06 10:00:26;;;;;;;7.28;3.75;;;;;;;11.40;61.31;99124.20;1713078;82;21064;-69
2022/04/06 10:03:06;;;;;;;7.17;3.92;;;;;;;11.35;61.66;99132.84;1713113;83;22187;-71
2022/04/06 10:05:35;;;;;;;4.37;3.58;;;;;;;11.33;61.65;99141.30;1713173;82;21294;-70
2022/04/06 10:08:09;;;;;;;10.57;3.93;;;;;;;11.29;61.88;99143.72;1713569;83;21574;-70
2022/04/06 10:10:40;;;;;;;7.80;3.95;;;;;;;11.17;61.90;99125.95;1712577;83;21059;-69
2022/04/06 10:13:07;;;;;;;9.55;4.08;;;;;;;11.33;61.22;99143.45;1713164;83;21623;-69
2022/04/06 10:15:38;;;;;;;4.87;3.65;;;;;;;11.57;60.55;99135.57;1713644;82;21062;-70
2022/04/06 10:18:05;;;;;;;8.60;3.55;;;;;;;11.93;59.69;99124.72;1713706;82;21273;-70
2022/04/06 10:20:39;;;;;;;4.17;3.42;;;;;;;12.16;58.61;99129.96;1713212;83;21010;-70
2022/04/06 10:23:20;;;;;;;4.72;3.77;;;;;;;12.60;57.26;99129.06;1713218;83;21025;-71
2022/04/06 10:26:19;;;;;;;6.22;3.47;;;;;;;12.91;55.90;99135.95;1713074;83;21829;-70
2022/04/06 10:28:48;;;;;;;8.40;3.20;;;;;;;13.16;55.08;99129.98;1713378;83;21081;-70
2022/04/06 10:31:22;;;;;;;5.47;3.12;;;;;;;13.74;53.89;99135.13;1713241;83;21065;-70
2022/04/06 10:33:54;;;;;;;3.70;3.10;;;;;;;14.13;52.60;99127.64;1713182;83;21053;-70
2022/04/06 10:36:30;;;;;;;3.77;2.92;;;;;;;14.37;51.63;99151.59;1717176;83;21108;-70
2022/04/06 10:39:10;;;;;;;4.87;3.83;;;;;;;14.32;51.76;99137.82;1720488;83;21049;-68
2022/04/06 10:41:41;;;;;;;4.65;3.37;;;;;;;13.96;52.12;99143.31;1721022;81;21072;-71
2022/04/06 10:44:39;;;;;;;4.80;3.67;;;;;;;13.73;52.88;99146.64;1721261;83;21165;-70
2022/04/06 10:47:08;;;;;;;3.42;3.00;;;;;;;13.64;53.27;99166.59;1721195;83;21036;-69
2022/04/06 10:49:35;;;;;;;3.85;3.33;;;;;;;13.26;54.00;99165.08;1721531;83;21092;-71
2022/04/06 10:52:18;;;;;;;3.80;3.25;;;;;;;13.01;54.74;99163.97;1726072;83;21067;-70
2022/04/06 10:54:46;;;;;;;4.95;3.55;;;;;;;12.89;55.25;99158.14;1726095;83;21122;-70
2022/04/06 10:57:13;;;;;;;4.65;3.10;;;;;;;12.82;55.75;99160.78;1726352;83;21090;-72
2022/04/06 10:59:41;;;;;;;5.03;3.55;;;;;;;12.79;56.31;99178.52;1726200;83;21563;-69
2022/04/06 11:02:26;;;;;;;3.95;3.12;;;;;;;12.72;56.08;99178.52;1726334;82;21559;-71
2022/04/06 11:04:53;;;;;;;4.00;3.20;;;;;;;12.58;56.54;99186.41;1726221;82;21102;-70
2022/04/06 11:10:22;;;;;;;4.57;3.20;;;;;;;12.03;58.36;99189.67;1714312;83;21156;-70
2022/04/06 11:13:04;;;;;;;5.22;3.52;;;;;;;11.89;59.05;99194.42;1726301;83;21090;-70
2022/04/06 11:15:40;;;;;;;3.42;2.87;;;;;;;11.88;59.36;99190.95;1726051;83;21094;-69
2022/04/06 11:18:47;;;;;;;4.28;3.40;;;;;;;11.87;60.05;99194.95;1726500;82;21102;-70
2022/04/06 11:21:14;;;;;;;5.30;3.02;;;;;;;11.92;60.04;99191.63;1726433;83;21117;-69
2022/04/06 11:23:42;;;;;;;7.62;3.70;;;;;;;11.96;59.96;99198.41;1726308;83;21139;-70
2022/04/06 11:26:09;;;;;;;5.03;3.30;;;;;;;12.07;59.92;99197.80;1726186;83;20996;-69
2022/04/06 11:28:37;;;;;;;4.30;2.85;;;;;;;12.23;59.92;99190.69;1726373;83;21103;-70
2022/04/06 11:31:05;;;;;;;4.00;3.10;;;;;;;12.49;59.13;99190.92;1726132;82;21063;-72
2022/04/06 11:33:40;;;;;;;5.85;3.20;;;;;;;12.65;58.55;99198.30;1710125;83;21035;-71
2022/04/06 11:36:15;;;;;;;3.85;3.30;;;;;;;12.77;58.15;99194.94;1725542;82;21046;-70
2022/04/06 11:38:42;;;;;;;4.47;3.27;;;;;;;12.85;57.77;99193.61;1720821;82;21071;-70
2022/04/06 11:41:10;;;;;;;4.67;3.05;;;;;;;12.87;57.34;99189.09;1720947;82;21078;-71
2022/04/06 11:43:42;;;;;;;5.87;3.60;;;;;;;12.82;57.48;99199.94;1686212;85;21065;-70
2022/04/06 11:46:09;;;;;;;5.70;3.35;;;;;;;12.83;57.83;99198.14;1720967;82;21115;-70